createdAt,value
2017-12-31T00:01:12.323Z,12.83
2017-12-31T00:03:39.722Z,14.57
2017-12-31T00:06:07.122Z,21.40
2017-12-31T00:08:34.586Z,15.90
2017-12-31T00:11:02.044Z,17.53
2017-12-31T00:13:29.446Z,11.57
2017-12-31T00:15:56.862Z,9.30
2017-12-31T00:18:24.272Z,12.10
2017-12-31T00:20:51.674Z,11.60
2017-12-31T00:23:19.087Z,12.67
2017-12-31T00:25:46.511Z,6.70
2017-12-31T00:28:13.997Z,11.63
2017-12-31T00:30:41.397Z,7.40
2017-12-31T00:33:08.796Z,18.93
2017-12-31T00:35:36.311Z,11.20
2017-12-31T00:38:03.723Z,8.03
2017-12-31T00:40:31.127Z,10.33
2017-12-31T00:42:58.583Z,7.80
2017-12-31T00:45:25.986Z,13.60
2017-12-31T00:47:53.386Z,9.27
2017-12-31T00:50:20.836Z,12.20
2017-12-31T00:52:48.250Z,13.93
2017-12-31T00:55:15.764Z,12.10
2017-12-31T00:57:43.170Z,9.30
2017-12-31T01:00:10.607Z,7.67
2017-12-31T01:02:38.012Z,11.17
2017-12-31T01:05:05.415Z,7.40
2017-12-31T01:07:32.932Z,8.20
2017-12-31T01:10:00.326Z,6.53
2017-12-31T01:12:27.738Z,7.77
2017-12-31T01:14:55.146Z,12.53
2017-12-31T01:17:22.601Z,12.13
2017-12-31T01:19:50.027Z,13.40
2017-12-31T01:22:17.443Z,13.93
2017-12-31T01:24:44.847Z,9.73
2017-12-31T01:27:12.282Z,11.97
2017-12-31T01:29:39.684Z,14.13
2017-12-31T01:32:07.091Z,26.80
2017-12-31T01:34:34.549Z,15.90
2017-12-31T01:37:01.968Z,15.90
2017-12-31T01:39:29.372Z,11.73
2017-12-31T01:41:56.819Z,13.63
2017-12-31T01:44:24.219Z,18.87
2017-12-31T01:46:51.720Z,10.30
2017-12-31T01:49:19.146Z,9.00
2017-12-31T01:51:47.409Z,15.83
2017-12-31T01:54:14.807Z,13.13
2017-12-31T01:56:42.247Z,31.33
2017-12-31T01:59:09.653Z,14.40
2017-12-31T02:01:37.063Z,31.30
2017-12-31T02:04:04.489Z,16.53
2017-12-31T02:06:31.892Z,11.17
2017-12-31T02:08:59.290Z,12.03
2017-12-31T02:11:26.813Z,19.10
2017-12-31T02:13:54.216Z,12.90
2017-12-31T02:16:21.610Z,13.97
2017-12-31T02:18:49.040Z,13.90
2017-12-31T02:21:16.446Z,15.27
2017-12-31T02:23:43.851Z,15.17
2017-12-31T02:26:11.275Z,20.03
2017-12-31T02:28:38.673Z,16.00
2017-12-31T02:31:06.078Z,11.97
2017-12-31T02:33:33.615Z,15.47
2017-12-31T02:36:01.015Z,13.87
2017-12-31T02:38:28.423Z,13.60
2017-12-31T02:40:55.848Z,14.00
2017-12-31T02:43:23.245Z,12.17
2017-12-31T02:45:50.650Z,15.40
2017-12-31T02:48:18.082Z,19.33
2017-12-31T02:50:45.524Z,24.23
2017-12-31T02:53:12.931Z,24.40
2017-12-31T02:55:40.355Z,23.03
2017-12-31T02:58:07.790Z,20.57
2017-12-31T03:00:35.190Z,15.83
2017-12-31T03:03:02.615Z,26.27
2017-12-31T03:05:30.055Z,20.73
2017-12-31T03:07:57.520Z,43.13
2017-12-31T03:10:24.943Z,19.73
2017-12-31T03:12:52.431Z,17.07
2017-12-31T03:15:19.845Z,20.33
2017-12-31T03:17:47.270Z,32.23
2017-12-31T03:20:14.687Z,31.87
2017-12-31T03:22:42.091Z,37.17
2017-12-31T03:25:09.519Z,24.60
2017-12-31T03:27:36.914Z,16.60
2017-12-31T03:30:04.328Z,25.60
2017-12-31T03:32:31.766Z,11.60
2017-12-31T03:34:59.247Z,19.40
2017-12-31T03:37:26.702Z,26.87
2017-12-31T03:39:54.136Z,12.73
2017-12-31T03:42:21.607Z,21.07
2017-12-31T03:44:49.010Z,23.50
2017-12-31T03:47:16.429Z,23.70
2017-12-31T03:49:43.828Z,25.50
2017-12-31T03:52:11.231Z,17.10
2017-12-31T03:54:38.682Z,14.97
2017-12-31T03:57:06.086Z,20.53
2017-12-31T03:59:33.495Z,30.70
2017-12-31T04:02:00.921Z,23.50
2017-12-31T04:04:28.337Z,15.77
2017-12-31T04:09:29.592Z,21.83
2017-12-31T04:11:57.031Z,26.20
2017-12-31T04:14:24.491Z,16.70
2017-12-31T04:16:51.953Z,19.90
2017-12-31T04:19:19.385Z,26.70
2017-12-31T04:21:46.787Z,21.37
2017-12-31T04:24:14.202Z,21.00
2017-12-31T04:26:41.623Z,21.13
2017-12-31T04:29:09.115Z,28.47
2017-12-31T04:31:36.580Z,22.13
2017-12-31T04:34:04.013Z,25.63
2017-12-31T04:36:31.427Z,23.23
2017-12-31T04:38:58.835Z,30.17
2017-12-31T04:41:26.311Z,30.13
2017-12-31T04:43:53.716Z,24.43
2017-12-31T04:46:21.134Z,24.73
2017-12-31T04:48:48.549Z,23.73
2017-12-31T04:51:15.953Z,21.27
2017-12-31T04:53:43.367Z,35.13
2017-12-31T04:56:10.849Z,17.63
2017-12-31T04:58:38.259Z,27.27
2017-12-31T05:01:05.760Z,16.90
2017-12-31T05:03:33.162Z,24.50
2017-12-31T05:06:00.571Z,21.90
2017-12-31T05:08:28.016Z,33.03
2017-12-31T05:10:55.416Z,15.23
2017-12-31T05:13:22.818Z,28.30
2017-12-31T05:15:50.245Z,22.83
2017-12-31T05:18:17.663Z,31.40
2017-12-31T05:20:45.086Z,31.63
2017-12-31T05:23:12.514Z,32.80
2017-12-31T05:25:39.928Z,23.10
2017-12-31T05:28:07.360Z,13.80
2017-12-31T05:30:34.755Z,22.53
2017-12-31T05:33:02.163Z,30.63
2017-12-31T05:35:29.746Z,33.50
2017-12-31T05:37:57.160Z,20.50
2017-12-31T05:40:24.558Z,29.93
2017-12-31T05:42:51.994Z,18.60
2017-12-31T05:45:19.478Z,24.60
2017-12-31T05:47:46.886Z,22.07
2017-12-31T05:50:14.308Z,23.17
2017-12-31T05:55:32.222Z,22.70
2017-12-31T05:57:59.614Z,17.57
2017-12-31T06:00:27.050Z,17.50
2017-12-31T06:02:54.517Z,23.63
2017-12-31T06:05:21.940Z,23.70
2017-12-31T06:07:49.347Z,21.87
2017-12-31T06:10:16.803Z,28.87
2017-12-31T06:12:44.219Z,21.60
2017-12-31T06:15:11.639Z,35.40
2017-12-31T06:17:39.087Z,19.20
2017-12-31T06:20:06.504Z,29.97
2017-12-31T06:22:33.935Z,16.20
2017-12-31T06:25:01.373Z,17.63
2017-12-31T06:27:28.799Z,21.63
2017-12-31T06:29:56.223Z,12.97
2017-12-31T06:32:23.659Z,26.13
2017-12-31T06:34:51.096Z,34.83
2017-12-31T06:37:18.513Z,21.43
2017-12-31T06:39:45.998Z,28.60
2017-12-31T06:42:13.434Z,29.03
2017-12-31T06:44:40.860Z,25.10
2017-12-31T06:47:08.297Z,23.03
2017-12-31T06:49:35.715Z,26.83
2017-12-31T06:52:03.165Z,17.10
2017-12-31T06:54:30.641Z,25.60
2017-12-31T06:56:58.025Z,33.83
2017-12-31T06:59:25.440Z,29.73
2017-12-31T07:01:52.879Z,27.27
2017-12-31T07:04:20.297Z,21.73
2017-12-31T07:06:47.719Z,31.77
2017-12-31T07:09:15.176Z,29.60
2017-12-31T07:11:42.591Z,24.60
2017-12-31T07:14:10.007Z,29.03
2017-12-31T07:16:37.448Z,22.97
2017-12-31T07:19:04.884Z,25.30
2017-12-31T07:21:32.301Z,26.67
2017-12-31T07:23:59.720Z,23.63
2017-12-31T07:26:27.159Z,16.43
2017-12-31T07:28:54.590Z,32.83
2017-12-31T07:31:22.008Z,27.37
2017-12-31T07:33:49.471Z,29.87
2017-12-31T07:36:16.891Z,24.97
2017-12-31T07:38:44.331Z,21.43
2017-12-31T07:41:11.782Z,21.23
2017-12-31T07:43:39.203Z,20.60
2017-12-31T07:46:06.667Z,26.23
2017-12-31T07:48:34.075Z,25.37
2017-12-31T07:51:01.506Z,28.70
2017-12-31T07:53:28.960Z,22.57
2017-12-31T07:55:56.424Z,26.83
2017-12-31T07:58:23.839Z,30.97
2017-12-31T08:00:51.318Z,20.37
2017-12-31T08:03:18.750Z,22.07
2017-12-31T08:05:46.215Z,23.23
2017-12-31T08:08:13.673Z,32.43
2017-12-31T08:10:41.114Z,24.53
2017-12-31T08:13:08.545Z,33.00
2017-12-31T08:15:36.664Z,20.43
2017-12-31T08:18:04.068Z,29.17
2017-12-31T08:20:31.475Z,27.03
2017-12-31T08:22:58.911Z,22.87
2017-12-31T08:25:26.351Z,17.17
2017-12-31T08:27:53.795Z,27.70
2017-12-31T08:30:21.227Z,32.80
2017-12-31T08:32:48.660Z,22.60
2017-12-31T08:35:16.127Z,29.50
2017-12-31T08:37:43.543Z,28.40
2017-12-31T08:40:10.964Z,32.30
2017-12-31T08:42:38.395Z,29.80
2017-12-31T08:45:05.813Z,23.57
2017-12-31T08:47:33.268Z,63.10
2017-12-31T08:50:00.767Z,26.30
2017-12-31T08:52:28.179Z,29.00
2017-12-31T08:54:55.688Z,36.17
2017-12-31T08:57:23.114Z,21.87
2017-12-31T08:59:50.531Z,27.50
2017-12-31T09:02:17.939Z,42.40
2017-12-31T09:04:45.457Z,50.50
2017-12-31T09:07:12.975Z,38.47
2017-12-31T09:09:40.388Z,32.03
2017-12-31T09:12:07.870Z,36.77
2017-12-31T09:14:35.266Z,36.70
2017-12-31T09:17:02.675Z,29.07
2017-12-31T09:19:30.145Z,27.30
2017-12-31T09:21:57.580Z,44.13
2017-12-31T09:24:25.067Z,29.03
2017-12-31T09:26:52.484Z,36.43
2017-12-31T09:29:19.910Z,37.83
2017-12-31T09:34:39.144Z,32.57
2017-12-31T09:37:06.627Z,105.17
2017-12-31T09:39:34.040Z,36.47
2017-12-31T09:42:01.539Z,42.63
2017-12-31T09:44:29.026Z,39.30
2017-12-31T09:46:56.431Z,47.07
2017-12-31T09:49:23.869Z,40.03
2017-12-31T09:51:51.264Z,26.60
2017-12-31T09:54:18.671Z,40.13
2017-12-31T09:56:46.202Z,40.53
2017-12-31T09:59:13.619Z,41.97
2017-12-31T10:01:41.036Z,37.17
2017-12-31T10:04:08.864Z,35.80
2017-12-31T10:06:36.271Z,30.80
2017-12-31T10:09:03.722Z,40.60
2017-12-31T10:11:31.139Z,50.97
2017-12-31T10:13:58.604Z,47.57
2017-12-31T10:16:26.016Z,43.90
2017-12-31T10:18:53.624Z,30.37
2017-12-31T10:21:21.027Z,41.13
2017-12-31T10:23:48.453Z,38.37
2017-12-31T10:26:15.911Z,24.67
2017-12-31T10:28:43.383Z,27.87
2017-12-31T10:31:10.792Z,35.47
2017-12-31T10:33:38.249Z,42.60
2017-12-31T10:36:05.667Z,32.93
2017-12-31T10:38:33.087Z,39.33
2017-12-31T10:41:00.528Z,33.20
2017-12-31T10:43:27.939Z,44.70
2017-12-31T10:45:55.348Z,37.10
2017-12-31T10:48:22.811Z,25.17
2017-12-31T10:50:50.228Z,36.83
2017-12-31T10:53:17.671Z,32.27
2017-12-31T10:55:45.087Z,31.37
2017-12-31T10:58:12.526Z,31.13
2017-12-31T11:00:39.963Z,31.10
2017-12-31T11:03:07.386Z,37.73
2017-12-31T11:05:34.812Z,36.20
2017-12-31T11:08:02.242Z,35.00
2017-12-31T11:10:29.654Z,58.30
2017-12-31T11:12:57.063Z,32.27
2017-12-31T11:15:24.503Z,18.87
2017-12-31T11:17:51.942Z,29.27
2017-12-31T11:20:19.378Z,26.80
2017-12-31T11:22:46.811Z,21.17
2017-12-31T11:25:14.283Z,25.57
2017-12-31T11:27:41.719Z,24.10
2017-12-31T11:30:09.139Z,19.70
2017-12-31T11:32:36.600Z,20.23
2017-12-31T11:35:04.025Z,26.70
2017-12-31T11:37:31.892Z,18.07
2017-12-31T11:39:59.327Z,22.60
2017-12-31T11:42:26.765Z,19.70
2017-12-31T11:44:54.162Z,15.63
2017-12-31T11:47:21.641Z,18.97
2017-12-31T11:49:49.146Z,25.73
2017-12-31T11:52:16.551Z,24.97
2017-12-31T11:54:43.989Z,22.47
2017-12-31T11:57:11.398Z,32.20
2017-12-31T11:59:38.816Z,22.53
2017-12-31T12:02:06.331Z,19.73
2017-12-31T12:04:33.744Z,14.83
2017-12-31T12:07:01.250Z,17.00
2017-12-31T12:09:28.676Z,15.10
2017-12-31T12:11:56.103Z,19.73
2017-12-31T12:14:23.532Z,16.10
2017-12-31T12:16:50.959Z,12.97
2017-12-31T12:19:18.355Z,15.23
2017-12-31T12:21:45.875Z,14.20
2017-12-31T12:24:13.232Z,14.23
2017-12-31T12:26:40.635Z,28.50
2017-12-31T12:29:08.059Z,13.80
2017-12-31T12:31:35.517Z,15.40
2017-12-31T12:34:02.945Z,21.53
2017-12-31T12:36:30.348Z,17.20
2017-12-31T12:38:57.869Z,15.83
2017-12-31T12:41:25.340Z,9.43
2017-12-31T12:43:52.791Z,15.97
2017-12-31T12:46:20.224Z,14.77
2017-12-31T12:48:47.639Z,12.50
2017-12-31T12:51:15.043Z,7.67
2017-12-31T12:53:42.462Z,16.47
2017-12-31T12:56:09.879Z,15.93
2017-12-31T12:58:37.316Z,11.87
2017-12-31T13:01:04.720Z,15.07
2017-12-31T13:03:32.139Z,16.03
2017-12-31T13:05:59.634Z,17.00
2017-12-31T13:08:27.064Z,24.50
2017-12-31T13:10:54.509Z,21.03
2017-12-31T13:13:21.959Z,23.93
2017-12-31T13:15:49.373Z,25.03
2017-12-31T13:18:16.782Z,18.60
2017-12-31T13:20:44.230Z,18.53
2017-12-31T13:23:11.625Z,22.67
2017-12-31T13:25:39.041Z,17.60
2017-12-31T13:28:06.478Z,17.30
2017-12-31T13:30:33.890Z,24.67
2017-12-31T13:33:01.418Z,13.73
2017-12-31T13:35:28.854Z,16.77
2017-12-31T13:37:56.268Z,17.23
2017-12-31T13:40:23.693Z,15.10
2017-12-31T13:42:51.159Z,17.77
2017-12-31T13:45:18.596Z,17.63
2017-12-31T13:47:45.994Z,11.23
2017-12-31T13:50:13.439Z,12.10
2017-12-31T13:52:40.882Z,19.73
2017-12-31T13:55:08.299Z,16.40
2017-12-31T13:57:35.734Z,17.13
2017-12-31T14:00:03.253Z,20.53
2017-12-31T14:02:30.677Z,12.83
2017-12-31T14:04:58.118Z,10.70
2017-12-31T14:07:25.528Z,10.87
2017-12-31T14:09:52.933Z,14.00
2017-12-31T14:12:20.417Z,11.27
2017-12-31T14:14:47.831Z,18.77
2017-12-31T14:17:15.246Z,19.07
2017-12-31T14:19:42.685Z,10.30
2017-12-31T14:22:10.086Z,16.23
2017-12-31T14:24:37.528Z,14.43
2017-12-31T14:27:04.984Z,14.73
2017-12-31T14:29:32.390Z,18.80
2017-12-31T14:31:59.794Z,15.27
2017-12-31T14:34:27.239Z,15.70
2017-12-31T14:36:54.652Z,12.00
2017-12-31T14:39:22.055Z,11.20
2017-12-31T14:41:49.483Z,11.40
2017-12-31T14:44:16.967Z,16.13
2017-12-31T14:46:44.370Z,15.07
2017-12-31T14:49:11.816Z,9.73
2017-12-31T14:51:39.224Z,15.73
2017-12-31T14:54:06.653Z,33.77
2017-12-31T14:56:34.082Z,20.17
2017-12-31T14:59:01.490Z,15.27
2017-12-31T15:01:28.917Z,11.23
2017-12-31T15:03:56.407Z,18.03
2017-12-31T15:06:23.847Z,20.97
2017-12-31T15:08:51.320Z,9.70
2017-12-31T15:11:18.747Z,14.83
2017-12-31T15:13:46.365Z,36.63
2017-12-31T15:16:13.776Z,23.30
2017-12-31T15:18:41.186Z,15.07
2017-12-31T15:21:08.616Z,17.30
2017-12-31T15:23:36.032Z,20.70
2017-12-31T15:26:03.441Z,14.17
2017-12-31T15:28:30.871Z,15.10
2017-12-31T15:30:58.290Z,13.47
2017-12-31T15:33:25.808Z,23.00
2017-12-31T15:35:53.239Z,16.87
2017-12-31T15:38:20.643Z,14.40
2017-12-31T15:40:48.051Z,11.53
2017-12-31T15:43:15.502Z,15.00
2017-12-31T15:45:42.903Z,19.07
2017-12-31T15:48:10.421Z,10.53
2017-12-31T15:50:37.842Z,15.50
2017-12-31T15:53:05.536Z,15.53
2017-12-31T15:55:33.021Z,12.57
2017-12-31T15:58:00.455Z,13.73
2017-12-31T16:00:27.929Z,13.73
2017-12-31T16:02:55.367Z,7.50
2017-12-31T16:05:22.794Z,15.37
2017-12-31T16:07:50.206Z,12.00
2017-12-31T16:10:17.613Z,12.27
2017-12-31T16:12:45.052Z,15.93
2017-12-31T16:15:12.459Z,16.87
2017-12-31T16:17:39.867Z,13.77
2017-12-31T16:20:07.320Z,15.67
2017-12-31T16:22:34.720Z,19.23
2017-12-31T16:25:02.191Z,18.07
2017-12-31T16:27:29.624Z,41.13
2017-12-31T16:29:57.096Z,20.97
2017-12-31T16:32:24.535Z,19.17
2017-12-31T16:34:51.947Z,18.77
2017-12-31T16:37:19.505Z,21.83
2017-12-31T16:39:46.897Z,17.40
2017-12-31T16:42:14.335Z,14.40
2017-12-31T16:44:41.740Z,12.13
2017-12-31T16:47:09.190Z,15.00
2017-12-31T16:49:36.615Z,14.90
2017-12-31T16:52:04.026Z,14.03
2017-12-31T16:54:31.455Z,12.63
2017-12-31T16:56:58.908Z,16.93
2017-12-31T16:59:26.318Z,17.80
2017-12-31T17:01:53.756Z,13.77
2017-12-31T17:04:21.190Z,18.00
2017-12-31T17:06:48.601Z,17.63
2017-12-31T17:09:16.023Z,11.70
2017-12-31T17:11:43.445Z,15.67
2017-12-31T17:14:10.862Z,18.13
2017-12-31T17:16:38.290Z,13.10
2017-12-31T17:19:05.713Z,14.70
2017-12-31T17:21:33.188Z,16.13
2017-12-31T17:24:00.734Z,15.67
2017-12-31T17:26:28.155Z,28.90
2017-12-31T17:28:55.563Z,18.47
2017-12-31T17:31:23.014Z,17.07
2017-12-31T17:33:50.431Z,15.97
2017-12-31T17:36:17.846Z,12.97
2017-12-31T17:38:45.285Z,60.93
2017-12-31T17:41:12.743Z,21.33
2017-12-31T17:43:40.157Z,37.50
2017-12-31T17:46:07.583Z,42.47
2017-12-31T17:48:35.099Z,32.73
2017-12-31T17:51:02.514Z,22.00
2017-12-31T17:53:30.022Z,21.43
2017-12-31T17:55:57.433Z,22.37
2017-12-31T17:58:24.848Z,20.87
2017-12-31T18:00:52.274Z,22.20
2017-12-31T18:03:19.739Z,26.80
2017-12-31T18:05:47.310Z,33.47
2017-12-31T18:08:14.755Z,47.33
2017-12-31T18:10:42.175Z,14.13
2017-12-31T18:13:09.678Z,38.20
2017-12-31T18:15:37.124Z,44.43
2017-12-31T18:18:04.595Z,61.93
2017-12-31T18:20:32.008Z,33.00
2017-12-31T18:22:59.473Z,13.23
2017-12-31T18:25:27.089Z,19.93
2017-12-31T18:27:54.517Z,23.70
2017-12-31T18:30:22.057Z,30.53
2017-12-31T18:32:49.478Z,43.00
2017-12-31T18:35:16.974Z,36.23
2017-12-31T18:37:44.466Z,28.60
2017-12-31T18:40:11.957Z,34.67
2017-12-31T18:42:39.505Z,26.83
2017-12-31T18:45:07.087Z,27.53
2017-12-31T18:47:34.638Z,17.60
2017-12-31T18:50:02.094Z,17.40
2017-12-31T18:52:29.594Z,23.00
2017-12-31T18:54:57.007Z,38.40
2017-12-31T18:57:24.471Z,35.00
2017-12-31T18:59:51.979Z,37.23
2017-12-31T19:02:19.420Z,27.50
2017-12-31T19:04:46.858Z,30.97
2017-12-31T19:07:14.335Z,21.97
2017-12-31T19:09:41.735Z,17.23
2017-12-31T19:12:09.263Z,26.70
2017-12-31T19:14:36.772Z,20.43
2017-12-31T19:17:04.203Z,27.83
2017-12-31T19:19:31.647Z,27.37
2017-12-31T19:21:59.105Z,21.40
2017-12-31T19:24:26.538Z,21.70
2017-12-31T19:26:53.996Z,25.57
2017-12-31T19:29:21.474Z,21.57
2017-12-31T19:31:48.919Z,34.07
2017-12-31T19:34:16.380Z,37.27
2017-12-31T19:36:43.831Z,29.03
2017-12-31T19:39:11.255Z,29.13
2017-12-31T19:41:38.694Z,31.23
2017-12-31T19:44:06.118Z,28.60
2017-12-31T19:46:33.543Z,32.70
2017-12-31T19:49:01.021Z,30.03
2017-12-31T19:51:28.447Z,32.03
2017-12-31T19:53:55.918Z,30.57
2017-12-31T19:56:23.376Z,23.80
2017-12-31T19:58:50.803Z,31.90
2017-12-31T20:01:18.231Z,18.57
2017-12-31T20:03:45.684Z,49.00
2017-12-31T20:06:13.110Z,37.77
2017-12-31T20:08:40.536Z,25.47
2017-12-31T20:11:07.971Z,23.10
2017-12-31T20:13:35.392Z,22.70
2017-12-31T20:16:02.838Z,42.20
2017-12-31T20:18:30.271Z,40.20
2017-12-31T20:20:57.707Z,44.27
2017-12-31T20:23:25.123Z,32.27
2017-12-31T20:25:52.588Z,140.80
2017-12-31T20:28:20.025Z,281.47
2017-12-31T20:30:47.449Z,26.37
2017-12-31T20:33:14.889Z,27.77
2017-12-31T20:35:42.469Z,25.10
2017-12-31T20:38:09.900Z,13.00
2017-12-31T20:40:37.346Z,327.07
2017-12-31T20:43:04.798Z,29.10
2017-12-31T20:45:32.205Z,17.90
2017-12-31T20:47:59.642Z,35.93
2017-12-31T20:50:27.073Z,80.87
2017-12-31T20:52:54.501Z,57.23
2017-12-31T20:55:21.959Z,32.10
2017-12-31T20:57:49.389Z,73.20
2017-12-31T21:02:50.748Z,33.97
2017-12-31T21:05:18.167Z,27.53
2017-12-31T21:07:45.595Z,26.37
2017-12-31T21:10:13.058Z,33.27
2017-12-31T21:12:40.467Z,43.90
2017-12-31T21:15:07.895Z,53.23
2017-12-31T21:17:35.392Z,36.40
2017-12-31T21:20:02.815Z,27.00
2017-12-31T21:22:30.238Z,35.33
2017-12-31T21:24:57.687Z,28.60
2017-12-31T21:27:25.128Z,39.20
2017-12-31T21:29:52.547Z,62.53
2017-12-31T21:32:19.984Z,29.97
2017-12-31T21:34:47.402Z,30.50
2017-12-31T21:37:14.847Z,21.60
2017-12-31T21:39:42.282Z,24.40
2017-12-31T21:42:09.711Z,16.03
2017-12-31T21:44:37.177Z,37.90
2017-12-31T21:47:04.602Z,86.57
2017-12-31T21:49:32.035Z,28.20
2017-12-31T21:51:59.624Z,36.87
2017-12-31T21:54:27.147Z,66.27
2017-12-31T21:56:54.556Z,69.40
2017-12-31T21:59:22.172Z,30.47
2017-12-31T22:01:49.589Z,189.73
2017-12-31T22:04:17.007Z,43.87
2017-12-31T22:06:44.452Z,30.63
2017-12-31T22:09:11.858Z,39.00
2017-12-31T22:11:39.285Z,19.10
2017-12-31T22:14:06.810Z,23.50
2017-12-31T22:16:34.236Z,19.33
2017-12-31T22:19:01.639Z,22.73
2017-12-31T22:21:29.112Z,22.63
2017-12-31T22:23:56.543Z,21.87
2017-12-31T22:26:23.973Z,32.83
2017-12-31T22:28:51.404Z,23.13
2017-12-31T22:31:18.828Z,21.10
2017-12-31T22:33:46.316Z,17.80
2017-12-31T22:36:13.815Z,29.43
2017-12-31T22:38:41.287Z,31.83
2017-12-31T22:41:08.712Z,38.07
2017-12-31T22:43:36.303Z,21.80
2017-12-31T22:46:03.754Z,17.77
2017-12-31T22:48:31.154Z,80.33
2017-12-31T22:50:58.566Z,32.50
2017-12-31T22:53:26.115Z,126.13
2017-12-31T22:55:53.583Z,118.30
2017-12-31T22:58:21.017Z,278.93
2017-12-31T23:00:48.499Z,664.77
2017-12-31T23:03:15.927Z,227.73
2017-12-31T23:05:43.361Z,477.17
2017-12-31T23:08:10.816Z,402.97
2017-12-31T23:10:38.243Z,1081.67
2017-12-31T23:13:05.666Z,527.17
2017-12-31T23:15:33.099Z,677.30
2017-12-31T23:18:00.555Z,356.97
2017-12-31T23:20:27.975Z,365.73
2017-12-31T23:22:55.400Z,707.07
2017-12-31T23:25:22.954Z,289.50
2017-12-31T23:27:50.502Z,431.27
2017-12-31T23:30:17.928Z,411.67
2017-12-31T23:32:45.427Z,205.50
2017-12-31T23:35:12.895Z,233.10
2017-12-31T23:37:40.667Z,161.77
2017-12-31T23:40:08.100Z,200.13
2017-12-31T23:42:35.528Z,240.07
2017-12-31T23:45:02.967Z,187.60
2017-12-31T23:47:30.619Z,123.43
2017-12-31T23:49:58.032Z,187.13
2017-12-31T23:52:25.506Z,149.17
2017-12-31T23:54:52.935Z,151.07
2017-12-31T23:57:20.508Z,273.90
2017-12-31T23:59:47.924Z,88.60
